Impacts METAR Board
IDs:

KDAB - Daytona Beach Intl, FL, US

Updated at: 2100 UTC 30 Jun 2022
Potential Impact None Slight Moderate High
Time 30/09Z 30/10Z 30/11Z 30/12Z 30/13Z 30/14Z 30/15Z 30/16Z 30/17Z 30/18Z 30/19Z 30/20Z 30/21Z
Temp76 76 75 79 82 84 84 80 86 84 86 84 84
Dewpt74 73 73 74 75 74 74 75 74 74 74 73 74
Altim30.11 30.11 30.12 30.13 30.13 30.14 30.15 30.13 30.12 30.11 30.10 30.09 30.10
VIS10 10 10 10 10 10 10 9 10 10 10 10 10
CIG-- -- -- -- -- 170 50 32 32 27 37 33 50
CoverFEWSCTSCTSCTSCTBKNBKNBKNBKNBKNBKNBKNBKN
FltCatVFRVFRVFRVFRVFRVFRVFRVFRVFRMVFRVFRVFRVFR
WX------------RA-RA---RATSTSTS
WDir0003103003080000907080
WSpd0 0 0 4 3 3 4 3 3 3 7 6 8
WGst-- -- -- -- -- -- -- -- -- -- -- -- --
Raw hourly METARs
KDAB 300853Z 00000KT 10SM FEW014 FEW044 24/23 A3011 RMK AO2 SLP196 T02440233 55010
KDAB 300953Z 00000KT 10SM SCT038 SCT065 SCT130 24/23 A3011 RMK AO2 SLP196 T02440228
KDAB 301053Z 00000KT 10SM FEW019 SCT039 SCT110 SCT250 24/23 A3012 RMK AO2 SLP198 T02390228
KDAB 301153Z 31004KT 10SM FEW019 SCT039 SCT170 26/23 A3013 RMK AO2 SLP202 T02610233 10261 20239 53005
KDAB 301253Z 30003KT 10SM FEW019 FEW040 SCT170 28/24 A3013 RMK AO2 SLP203 T02780239
KDAB 301353Z 03003KT 10SM SCT018 SCT040 BKN170 29/23 A3014 RMK AO2 SLP206 T02890233
KDAB 301453Z 08004KT 10SM RA BKN050 BKN170 29/23 A3015 RMK AO2 RAB51 SLP207 P0000 60000 T02890233 52005
KDAB 301553Z VRB03KT 9SM -RA SCT022 BKN032 BKN055 27/24 A3013 RMK AO2 SLP203 P0039 T02670239
KDAB 301653Z VRB03KT 10SM SCT027 BKN032 BKN060 30/23 A3012 RMK AO2 RAE00 SLP198 P0000 T03000233
KDAB 301753Z VRB03KT 10SM -RA BKN027 BKN035 29/23 A3011 RMK AO2 RAB35 SLP195 P0000 60039 T02890233 10311 20256 56012
KDAB 301853Z 09007KT 10SM TS SCT027CB BKN037 BKN055 30/23 A3010 RMK AO2 LTG DSNT SW-NW RAE02 TSE43B46 SLP191 FRQ LTGCG OHD-SW-NW TS OHD-SW-NW MOV W P0000 T03000233
KDAB 301953Z 07006KT 10SM TS SCT027CB BKN033 BKN050 29/23 A3009 RMK AO2 LTG DSNT SW AND NW SLP187 OCNL LTGCG SW-NW TS SW-NW MOV W T02890228
KDAB 302053Z 08008KT 10SM TS SCT023 SCT029CB BKN050 29/23 A3010 RMK AO2 LTG DSNT S AND SW SLP191 OCNL LTGICCG ALQDS TS ALQDS MOV W 60000 T02890233 55004



Page loaded:  21:51 UTC  |   02:51 PM Pacific  |   03:51 PM Mountain  |   04:51 PM Central  |   05:51 PM Eastern

 

ADVISORIES

FORECASTS

FORECASTS

OBSERVATIONS

USER TOOLS

ABOUT US